sensor_id;sensor_type;location;lat;lon;timestamp;P1;durP1;ratioP1;P2;durP2;ratioP2
39880;SDS011;25554;44.954;10.068;2022-10-13T00:01:09;28.38;;;18.98;;
39880;SDS011;25554;44.954;10.068;2022-10-13T00:03:38;30.13;;;19.65;;
39880;SDS011;25554;44.954;10.068;2022-10-13T00:06:05;28.33;;;18.48;;
39880;SDS011;25554;44.954;10.068;2022-10-13T00:08:33;24.73;;;18.27;;
39880;SDS011;25554;44.954;10.068;2022-10-13T00:13:27;26.38;;;17.75;;
39880;SDS011;25554;44.954;10.068;2022-10-13T00:15:53;29.10;;;19.45;;
39880;SDS011;25554;44.954;10.068;2022-10-13T00:18:21;30.17;;;19.60;;
39880;SDS011;25554;44.954;10.068;2022-10-13T00:20:49;29.80;;;19.08;;
39880;SDS011;25554;44.954;10.068;2022-10-13T00:25:47;25.95;;;18.15;;
39880;SDS011;25554;44.954;10.068;2022-10-13T00:28:17;26.58;;;19.02;;
39880;SDS011;25554;44.954;10.068;2022-10-13T00:30:45;26.10;;;18.27;;
39880;SDS011;25554;44.954;10.068;2022-10-13T00:33:11;29.75;;;20.63;;
39880;SDS011;25554;44.954;10.068;2022-10-13T00:35:42;28.42;;;18.88;;
39880;SDS011;25554;44.954;10.068;2022-10-13T00:38:14;26.60;;;17.92;;
39880;SDS011;25554;44.954;10.068;2022-10-13T00:40:43;28.02;;;18.58;;
39880;SDS011;25554;44.954;10.068;2022-10-13T00:43:15;27.02;;;19.10;;
39880;SDS011;25554;44.954;10.068;2022-10-13T00:45:52;30.90;;;17.80;;
39880;SDS011;25554;44.954;10.068;2022-10-13T00:48:21;27.75;;;19.35;;
39880;SDS011;25554;44.954;10.068;2022-10-13T00:50:53;26.60;;;19.13;;
39880;SDS011;25554;44.954;10.068;2022-10-13T00:53:24;28.52;;;18.23;;
39880;SDS011;25554;44.954;10.068;2022-10-13T00:55:53;39.08;;;19.70;;
39880;SDS011;25554;44.954;10.068;2022-10-13T00:58:20;29.10;;;18.95;;
39880;SDS011;25554;44.954;10.068;2022-10-13T01:00:50;31.65;;;19.10;;
39880;SDS011;25554;44.954;10.068;2022-10-13T01:03:18;25.40;;;18.63;;
39880;SDS011;25554;44.954;10.068;2022-10-13T01:05:45;27.00;;;19.13;;
39880;SDS011;25554;44.954;10.068;2022-10-13T01:08:13;24.17;;;18.05;;
39880;SDS011;25554;44.954;10.068;2022-10-13T01:10:44;28.02;;;18.10;;
39880;SDS011;25554;44.954;10.068;2022-10-13T01:15:53;30.10;;;19.13;;
39880;SDS011;25554;44.954;10.068;2022-10-13T01:18:43;26.90;;;17.60;;
39880;SDS011;25554;44.954;10.068;2022-10-13T01:39:28;26.48;;;18.20;;
39880;SDS011;25554;44.954;10.068;2022-10-13T01:42:16;27.40;;;20.25;;
39880;SDS011;25554;44.954;10.068;2022-10-13T01:44:48;31.55;;;19.75;;
39880;SDS011;25554;44.954;10.068;2022-10-13T01:47:19;28.83;;;19.42;;
39880;SDS011;25554;44.954;10.068;2022-10-13T01:49:49;25.83;;;19.05;;
39880;SDS011;25554;44.954;10.068;2022-10-13T01:52:17;28.83;;;20.50;;
39880;SDS011;25554;44.954;10.068;2022-10-13T01:54:49;29.08;;;19.98;;
39880;SDS011;25554;44.954;10.068;2022-10-13T01:57:31;30.75;;;20.48;;
39880;SDS011;25554;44.954;10.068;2022-10-13T02:00:09;30.60;;;20.48;;
39880;SDS011;25554;44.954;10.068;2022-10-13T02:05:47;28.48;;;18.45;;
39880;SDS011;25554;44.954;10.068;2022-10-13T02:13:33;33.17;;;21.45;;
39880;SDS011;25554;44.954;10.068;2022-10-13T02:16:06;34.10;;;20.35;;
39880;SDS011;25554;44.954;10.068;2022-10-13T02:18:33;30.90;;;20.42;;
39880;SDS011;25554;44.954;10.068;2022-10-13T02:21:00;31.05;;;20.15;;
39880;SDS011;25554;44.954;10.068;2022-10-13T02:23:29;30.15;;;19.83;;
39880;SDS011;25554;44.954;10.068;2022-10-13T02:25:56;31.20;;;20.52;;
39880;SDS011;25554;44.954;10.068;2022-10-13T02:28:24;31.65;;;21.10;;
39880;SDS011;25554;44.954;10.068;2022-10-13T02:30:50;33.72;;;20.17;;
39880;SDS011;25554;44.954;10.068;2022-10-13T02:35:43;33.65;;;21.85;;
39880;SDS011;25554;44.954;10.068;2022-10-13T02:40:36;35.33;;;20.17;;
39880;SDS011;25554;44.954;10.068;2022-10-13T02:43:03;30.33;;;21.05;;
39880;SDS011;25554;44.954;10.068;2022-10-13T02:45:29;30.85;;;20.30;;
39880;SDS011;25554;44.954;10.068;2022-10-13T02:47:56;32.65;;;20.17;;
39880;SDS011;25554;44.954;10.068;2022-10-13T02:50:22;34.80;;;20.42;;
39880;SDS011;25554;44.954;10.068;2022-10-13T02:55:15;26.85;;;19.48;;
39880;SDS011;25554;44.954;10.068;2022-10-13T02:57:44;40.50;;;21.83;;
39880;SDS011;25554;44.954;10.068;2022-10-13T03:00:14;31.02;;;19.70;;
39880;SDS011;25554;44.954;10.068;2022-10-13T03:02:41;35.35;;;21.98;;
39880;SDS011;25554;44.954;10.068;2022-10-13T03:05:08;36.13;;;21.15;;
39880;SDS011;25554;44.954;10.068;2022-10-13T03:07:35;33.22;;;22.17;;
39880;SDS011;25554;44.954;10.068;2022-10-13T03:10:02;35.00;;;22.83;;
39880;SDS011;25554;44.954;10.068;2022-10-13T03:12:29;31.60;;;21.98;;
39880;SDS011;25554;44.954;10.068;2022-10-13T03:14:56;34.47;;;22.10;;
39880;SDS011;25554;44.954;10.068;2022-10-13T03:17:22;31.60;;;20.35;;
39880;SDS011;25554;44.954;10.068;2022-10-13T03:22:16;30.48;;;20.55;;
39880;SDS011;25554;44.954;10.068;2022-10-13T03:24:44;32.53;;;21.52;;
39880;SDS011;25554;44.954;10.068;2022-10-13T03:27:10;33.75;;;22.75;;
39880;SDS011;25554;44.954;10.068;2022-10-13T03:29:37;34.58;;;22.08;;
39880;SDS011;25554;44.954;10.068;2022-10-13T03:34:29;31.30;;;19.60;;
39880;SDS011;25554;44.954;10.068;2022-10-13T03:36:56;34.95;;;21.63;;
39880;SDS011;25554;44.954;10.068;2022-10-13T03:39:23;32.40;;;21.77;;
39880;SDS011;25554;44.954;10.068;2022-10-13T03:41:50;31.38;;;21.48;;
39880;SDS011;25554;44.954;10.068;2022-10-13T03:44:16;33.15;;;20.63;;
39880;SDS011;25554;44.954;10.068;2022-10-13T03:49:10;35.65;;;20.40;;
39880;SDS011;25554;44.954;10.068;2022-10-13T03:51:36;34.28;;;21.67;;
39880;SDS011;25554;44.954;10.068;2022-10-13T03:54:03;33.58;;;21.83;;
39880;SDS011;25554;44.954;10.068;2022-10-13T03:58:57;34.47;;;21.92;;
39880;SDS011;25554;44.954;10.068;2022-10-13T04:01:26;38.00;;;22.98;;
39880;SDS011;25554;44.954;10.068;2022-10-13T04:03:54;36.50;;;22.58;;
39880;SDS011;25554;44.954;10.068;2022-10-13T04:06:22;36.63;;;23.23;;
39880;SDS011;25554;44.954;10.068;2022-10-13T04:08:49;34.72;;;22.13;;
39880;SDS011;25554;44.954;10.068;2022-10-13T04:11:16;35.45;;;21.02;;
39880;SDS011;25554;44.954;10.068;2022-10-13T04:13:49;32.50;;;19.60;;
39880;SDS011;25554;44.954;10.068;2022-10-13T04:18:43;34.15;;;20.85;;
39880;SDS011;25554;44.954;10.068;2022-10-13T04:21:12;33.85;;;20.33;;
39880;SDS011;25554;44.954;10.068;2022-10-13T04:23:39;31.42;;;19.83;;
39880;SDS011;25554;44.954;10.068;2022-10-13T04:26:06;42.40;;;20.58;;
39880;SDS011;25554;44.954;10.068;2022-10-13T04:28:33;35.17;;;20.10;;
39880;SDS011;25554;44.954;10.068;2022-10-13T04:31:03;36.03;;;20.52;;
39880;SDS011;25554;44.954;10.068;2022-10-13T04:33:30;32.45;;;20.08;;
39880;SDS011;25554;44.954;10.068;2022-10-13T04:35:56;34.67;;;20.55;;
39880;SDS011;25554;44.954;10.068;2022-10-13T04:40:49;34.38;;;20.80;;
39880;SDS011;25554;44.954;10.068;2022-10-13T04:45:42;37.17;;;21.48;;
39880;SDS011;25554;44.954;10.068;2022-10-13T04:50:35;38.20;;;21.50;;
39880;SDS011;25554;44.954;10.068;2022-10-13T04:53:02;36.55;;;22.58;;
39880;SDS011;25554;44.954;10.068;2022-10-13T04:57:54;33.25;;;21.30;;
39880;SDS011;25554;44.954;10.068;2022-10-13T05:02:47;34.90;;;20.30;;
39880;SDS011;25554;44.954;10.068;2022-10-13T05:07:40;31.55;;;19.52;;
39880;SDS011;25554;44.954;10.068;2022-10-13T05:12:33;35.83;;;22.30;;
39880;SDS011;25554;44.954;10.068;2022-10-13T05:15:00;35.88;;;20.42;;
39880;SDS011;25554;44.954;10.068;2022-10-13T05:17:28;34.30;;;20.98;;
39880;SDS011;25554;44.954;10.068;2022-10-13T05:19:56;30.65;;;19.30;;
39880;SDS011;25554;44.954;10.068;2022-10-13T05:24:48;31.38;;;19.55;;
39880;SDS011;25554;44.954;10.068;2022-10-13T05:29:41;33.92;;;19.63;;
39880;SDS011;25554;44.954;10.068;2022-10-13T05:32:07;31.05;;;19.58;;
39880;SDS011;25554;44.954;10.068;2022-10-13T05:37:00;31.08;;;19.33;;
39880;SDS011;25554;44.954;10.068;2022-10-13T05:39:27;32.50;;;18.40;;
39880;SDS011;25554;44.954;10.068;2022-10-13T05:44:19;30.23;;;18.13;;
39880;SDS011;25554;44.954;10.068;2022-10-13T05:46:52;29.83;;;18.55;;
39880;SDS011;25554;44.954;10.068;2022-10-13T05:49:19;34.45;;;21.42;;
39880;SDS011;25554;44.954;10.068;2022-10-13T05:51:46;40.15;;;21.17;;
39880;SDS011;25554;44.954;10.068;2022-10-13T05:54:24;37.28;;;21.65;;
39880;SDS011;25554;44.954;10.068;2022-10-13T05:56:57;31.42;;;20.20;;
39880;SDS011;25554;44.954;10.068;2022-10-13T05:59:34;30.13;;;18.77;;
39880;SDS011;25554;44.954;10.068;2022-10-13T06:02:06;34.88;;;20.40;;
39880;SDS011;25554;44.954;10.068;2022-10-13T06:04:35;32.03;;;19.10;;
39880;SDS011;25554;44.954;10.068;2022-10-13T06:07:05;35.55;;;20.45;;
39880;SDS011;25554;44.954;10.068;2022-10-13T06:09:34;31.38;;;19.45;;
39880;SDS011;25554;44.954;10.068;2022-10-13T06:12:05;29.60;;;18.75;;
39880;SDS011;25554;44.954;10.068;2022-10-13T06:14:32;27.02;;;16.77;;
39880;SDS011;25554;44.954;10.068;2022-10-13T06:17:02;23.17;;;16.13;;
39880;SDS011;25554;44.954;10.068;2022-10-13T06:19:29;27.65;;;17.52;;
39880;SDS011;25554;44.954;10.068;2022-10-13T06:21:55;24.98;;;17.23;;
39880;SDS011;25554;44.954;10.068;2022-10-13T06:26:48;26.23;;;14.80;;
39880;SDS011;25554;44.954;10.068;2022-10-13T06:29:15;23.90;;;16.30;;
39880;SDS011;25554;44.954;10.068;2022-10-13T06:34:08;28.38;;;16.33;;
39880;SDS011;25554;44.954;10.068;2022-10-13T06:36:35;25.58;;;16.52;;
39880;SDS011;25554;44.954;10.068;2022-10-13T06:39:02;31.80;;;17.52;;
39880;SDS011;25554;44.954;10.068;2022-10-13T06:43:55;34.80;;;18.70;;
39880;SDS011;25554;44.954;10.068;2022-10-13T06:48:48;30.80;;;17.08;;
39880;SDS011;25554;44.954;10.068;2022-10-13T06:51:15;30.65;;;17.65;;
39880;SDS011;25554;44.954;10.068;2022-10-13T06:53:42;28.83;;;18.05;;
39880;SDS011;25554;44.954;10.068;2022-10-13T06:58:35;33.20;;;18.60;;
39880;SDS011;25554;44.954;10.068;2022-10-13T07:01:03;30.63;;;18.88;;
39880;SDS011;25554;44.954;10.068;2022-10-13T07:03:30;30.08;;;18.73;;
39880;SDS011;25554;44.954;10.068;2022-10-13T07:06:00;36.13;;;21.30;;
39880;SDS011;25554;44.954;10.068;2022-10-13T07:08:28;29.13;;;18.75;;
39880;SDS011;25554;44.954;10.068;2022-10-13T07:10:55;31.45;;;19.33;;
39880;SDS011;25554;44.954;10.068;2022-10-13T07:13:22;34.63;;;20.23;;
39880;SDS011;25554;44.954;10.068;2022-10-13T07:15:49;39.17;;;20.77;;
39880;SDS011;25554;44.954;10.068;2022-10-13T07:20:41;31.85;;;19.92;;
39880;SDS011;25554;44.954;10.068;2022-10-13T07:23:08;33.63;;;20.08;;
39880;SDS011;25554;44.954;10.068;2022-10-13T07:28:04;35.28;;;21.40;;
39880;SDS011;25554;44.954;10.068;2022-10-13T07:30:31;34.08;;;20.08;;
39880;SDS011;25554;44.954;10.068;2022-10-13T07:35:24;31.93;;;21.37;;
39880;SDS011;25554;44.954;10.068;2022-10-13T07:40:18;34.70;;;19.00;;
39880;SDS011;25554;44.954;10.068;2022-10-13T07:45:11;29.40;;;17.48;;
39880;SDS011;25554;44.954;10.068;2022-10-13T07:50:03;25.45;;;17.70;;
39880;SDS011;25554;44.954;10.068;2022-10-13T07:52:30;29.60;;;18.10;;
39880;SDS011;25554;44.954;10.068;2022-10-13T07:57:26;33.88;;;20.70;;
39880;SDS011;25554;44.954;10.068;2022-10-13T07:59:52;33.58;;;19.80;;
39880;SDS011;25554;44.954;10.068;2022-10-13T08:02:19;36.60;;;21.80;;
39880;SDS011;25554;44.954;10.068;2022-10-13T08:04:45;44.67;;;24.75;;
39880;SDS011;25554;44.954;10.068;2022-10-13T08:07:12;41.67;;;25.55;;
39880;SDS011;25554;44.954;10.068;2022-10-13T08:09:41;42.05;;;24.10;;
39880;SDS011;25554;44.954;10.068;2022-10-13T08:12:07;43.00;;;25.20;;
39880;SDS011;25554;44.954;10.068;2022-10-13T08:17:00;40.67;;;24.27;;
39880;SDS011;25554;44.954;10.068;2022-10-13T08:21:53;47.15;;;26.75;;
39880;SDS011;25554;44.954;10.068;2022-10-13T08:24:20;42.03;;;27.08;;
39880;SDS011;25554;44.954;10.068;2022-10-13T08:26:50;45.72;;;26.20;;
39880;SDS011;25554;44.954;10.068;2022-10-13T08:29:16;48.60;;;27.17;;
39880;SDS011;25554;44.954;10.068;2022-10-13T08:31:43;48.97;;;28.98;;
39880;SDS011;25554;44.954;10.068;2022-10-13T08:36:36;51.55;;;30.80;;
39880;SDS011;25554;44.954;10.068;2022-10-13T08:39:03;51.05;;;31.30;;
39880;SDS011;25554;44.954;10.068;2022-10-13T08:41:31;49.45;;;33.30;;
39880;SDS011;25554;44.954;10.068;2022-10-13T08:44:06;53.00;;;32.75;;
39880;SDS011;25554;44.954;10.068;2022-10-13T08:46:53;55.70;;;31.77;;
39880;SDS011;25554;44.954;10.068;2022-10-13T08:49:45;53.58;;;32.45;;
39880;SDS011;25554;44.954;10.068;2022-10-13T08:54:45;54.05;;;33.33;;
39880;SDS011;25554;44.954;10.068;2022-10-13T08:57:11;49.63;;;32.28;;
39880;SDS011;25554;44.954;10.068;2022-10-13T08:59:38;50.78;;;33.42;;
39880;SDS011;25554;44.954;10.068;2022-10-13T09:04:48;48.35;;;32.85;;
39880;SDS011;25554;44.954;10.068;2022-10-13T09:07:18;50.83;;;33.50;;
39880;SDS011;25554;44.954;10.068;2022-10-13T09:09:51;54.47;;;33.25;;
39880;SDS011;25554;44.954;10.068;2022-10-13T09:12:19;43.67;;;31.27;;
39880;SDS011;25554;44.954;10.068;2022-10-13T09:15:22;50.17;;;35.00;;
39880;SDS011;25554;44.954;10.068;2022-10-13T09:17:42;58.30;;;35.90;;
39880;SDS011;25554;44.954;10.068;2022-10-13T09:20:22;52.83;;;34.40;;
39880;SDS011;25554;44.954;10.068;2022-10-13T09:23:02;52.38;;;34.63;;
39880;SDS011;25554;44.954;10.068;2022-10-13T09:25:43;54.42;;;34.85;;
39880;SDS011;25554;44.954;10.068;2022-10-13T09:28:27;52.50;;;35.20;;
39880;SDS011;25554;44.954;10.068;2022-10-13T09:33:59;50.28;;;33.63;;
39880;SDS011;25554;44.954;10.068;2022-10-13T09:36:27;51.22;;;32.30;;
39880;SDS011;25554;44.954;10.068;2022-10-13T09:39:04;45.60;;;30.05;;
39880;SDS011;25554;44.954;10.068;2022-10-13T09:41:43;42.65;;;28.60;;
39880;SDS011;25554;44.954;10.068;2022-10-13T09:44:11;41.45;;;28.52;;
39880;SDS011;25554;44.954;10.068;2022-10-13T09:46:44;41.75;;;28.50;;
39880;SDS011;25554;44.954;10.068;2022-10-13T09:52:13;48.55;;;31.08;;
39880;SDS011;25554;44.954;10.068;2022-10-13T09:57:36;39.90;;;27.50;;
39880;SDS011;25554;44.954;10.068;2022-10-13T10:05:18;42.40;;;26.67;;
39880;SDS011;25554;44.954;10.068;2022-10-13T10:11:12;41.83;;;28.80;;
39880;SDS011;25554;44.954;10.068;2022-10-13T10:13:42;36.08;;;23.50;;
39880;SDS011;25554;44.954;10.068;2022-10-13T10:18:41;33.22;;;22.80;;
39880;SDS011;25554;44.954;10.068;2022-10-13T10:26:09;32.03;;;22.30;;
39880;SDS011;25554;44.954;10.068;2022-10-13T10:39:42;28.50;;;19.88;;
39880;SDS011;25554;44.954;10.068;2022-10-13T10:45:42;33.25;;;23.33;;
39880;SDS011;25554;44.954;10.068;2022-10-13T10:50:55;28.13;;;19.90;;
39880;SDS011;25554;44.954;10.068;2022-10-13T10:53:28;30.02;;;21.65;;
39880;SDS011;25554;44.954;10.068;2022-10-13T11:17:31;30.65;;;21.08;;
39880;SDS011;25554;44.954;10.068;2022-10-13T11:31:22;25.98;;;17.52;;
39880;SDS011;25554;44.954;10.068;2022-10-13T12:00:57;33.17;;;15.00;;
39880;SDS011;25554;44.954;10.068;2022-10-13T12:03:39;21.88;;;12.07;;
39880;SDS011;25554;44.954;10.068;2022-10-13T12:08:46;14.55;;;10.07;;
39880;SDS011;25554;44.954;10.068;2022-10-13T12:11:35;16.42;;;10.98;;
39880;SDS011;25554;44.954;10.068;2022-10-13T12:16:30;21.35;;;12.10;;
39880;SDS011;25554;44.954;10.068;2022-10-13T12:19:07;20.27;;;12.15;;
39880;SDS011;25554;44.954;10.068;2022-10-13T12:21:49;18.45;;;13.52;;
39880;SDS011;25554;44.954;10.068;2022-10-13T12:24:23;19.73;;;13.18;;
39880;SDS011;25554;44.954;10.068;2022-10-13T12:26:51;21.15;;;14.35;;
39880;SDS011;25554;44.954;10.068;2022-10-13T12:29:19;23.55;;;15.20;;
39880;SDS011;25554;44.954;10.068;2022-10-13T12:31:49;21.38;;;16.20;;
39880;SDS011;25554;44.954;10.068;2022-10-13T12:34:26;24.05;;;14.77;;
39880;SDS011;25554;44.954;10.068;2022-10-13T12:36:57;25.80;;;15.27;;
39880;SDS011;25554;44.954;10.068;2022-10-13T12:39:30;25.42;;;14.65;;
39880;SDS011;25554;44.954;10.068;2022-10-13T12:41:59;22.73;;;14.63;;
39880;SDS011;25554;44.954;10.068;2022-10-13T12:44:27;23.90;;;15.48;;
39880;SDS011;25554;44.954;10.068;2022-10-13T12:46:56;21.08;;;13.48;;
39880;SDS011;25554;44.954;10.068;2022-10-13T12:49:29;19.90;;;13.35;;
39880;SDS011;25554;44.954;10.068;2022-10-13T12:51:57;24.30;;;15.75;;
39880;SDS011;25554;44.954;10.068;2022-10-13T12:54:46;22.20;;;15.68;;
39880;SDS011;25554;44.954;10.068;2022-10-13T12:57:21;25.52;;;15.65;;
39880;SDS011;25554;44.954;10.068;2022-10-13T12:59:52;20.25;;;14.05;;
39880;SDS011;25554;44.954;10.068;2022-10-13T13:02:20;17.70;;;13.18;;
39880;SDS011;25554;44.954;10.068;2022-10-13T13:04:52;27.63;;;16.65;;
39880;SDS011;25554;44.954;10.068;2022-10-13T13:07:30;26.50;;;14.55;;
39880;SDS011;25554;44.954;10.068;2022-10-13T13:12:36;26.67;;;16.90;;
39880;SDS011;25554;44.954;10.068;2022-10-13T13:15:20;27.90;;;14.80;;
39880;SDS011;25554;44.954;10.068;2022-10-13T13:21:13;21.25;;;15.48;;
39880;SDS011;25554;44.954;10.068;2022-10-13T13:23:42;28.25;;;16.75;;
39880;SDS011;25554;44.954;10.068;2022-10-13T13:26:12;20.25;;;13.02;;
39880;SDS011;25554;44.954;10.068;2022-10-13T13:28:42;26.40;;;16.13;;
39880;SDS011;25554;44.954;10.068;2022-10-13T13:31:12;24.92;;;17.42;;
39880;SDS011;25554;44.954;10.068;2022-10-13T13:33:41;23.55;;;17.52;;
39880;SDS011;25554;44.954;10.068;2022-10-13T13:36:17;26.30;;;18.00;;
39880;SDS011;25554;44.954;10.068;2022-10-13T13:38:46;23.05;;;17.45;;
39880;SDS011;25554;44.954;10.068;2022-10-13T13:41:12;26.95;;;17.58;;
39880;SDS011;25554;44.954;10.068;2022-10-13T13:43:39;28.00;;;15.95;;
39880;SDS011;25554;44.954;10.068;2022-10-13T13:46:06;25.58;;;16.42;;
39880;SDS011;25554;44.954;10.068;2022-10-13T13:48:40;27.92;;;17.98;;
39880;SDS011;25554;44.954;10.068;2022-10-13T13:51:07;22.45;;;15.68;;
39880;SDS011;25554;44.954;10.068;2022-10-13T13:53:34;24.95;;;15.30;;
39880;SDS011;25554;44.954;10.068;2022-10-13T13:56:01;20.92;;;12.68;;
39880;SDS011;25554;44.954;10.068;2022-10-13T13:58:27;21.58;;;14.50;;
39880;SDS011;25554;44.954;10.068;2022-10-13T14:00:55;22.92;;;14.73;;
39880;SDS011;25554;44.954;10.068;2022-10-13T14:03:21;23.48;;;14.73;;
39880;SDS011;25554;44.954;10.068;2022-10-13T14:05:48;31.88;;;17.80;;
39880;SDS011;25554;44.954;10.068;2022-10-13T14:08:17;22.83;;;15.68;;
39880;SDS011;25554;44.954;10.068;2022-10-13T14:10:44;24.02;;;15.88;;
39880;SDS011;25554;44.954;10.068;2022-10-13T14:15:37;27.63;;;17.30;;
39880;SDS011;25554;44.954;10.068;2022-10-13T14:18:03;25.67;;;16.02;;
39880;SDS011;25554;44.954;10.068;2022-10-13T14:22:56;24.27;;;14.35;;
39880;SDS011;25554;44.954;10.068;2022-10-13T14:27:49;21.83;;;14.35;;
39880;SDS011;25554;44.954;10.068;2022-10-13T14:30:15;28.23;;;17.23;;
39880;SDS011;25554;44.954;10.068;2022-10-13T14:32:42;29.30;;;16.05;;
39880;SDS011;25554;44.954;10.068;2022-10-13T14:35:08;22.00;;;14.80;;
39880;SDS011;25554;44.954;10.068;2022-10-13T14:37:35;19.27;;;13.38;;
39880;SDS011;25554;44.954;10.068;2022-10-13T14:42:28;19.90;;;11.55;;
39880;SDS011;25554;44.954;10.068;2022-10-13T14:44:55;20.60;;;12.77;;
39880;SDS011;25554;44.954;10.068;2022-10-13T14:49:48;15.68;;;11.93;;
39880;SDS011;25554;44.954;10.068;2022-10-13T14:54:40;16.63;;;11.55;;
39880;SDS011;25554;44.954;10.068;2022-10-13T14:57:07;16.70;;;11.73;;
39880;SDS011;25554;44.954;10.068;2022-10-13T14:59:33;22.63;;;12.23;;
39880;SDS011;25554;44.954;10.068;2022-10-13T15:02:00;18.92;;;12.90;;
39880;SDS011;25554;44.954;10.068;2022-10-13T15:06:52;20.55;;;12.65;;
39880;SDS011;25554;44.954;10.068;2022-10-13T15:09:19;19.65;;;12.15;;
39880;SDS011;25554;44.954;10.068;2022-10-13T15:11:46;21.67;;;13.43;;
39880;SDS011;25554;44.954;10.068;2022-10-13T15:14:12;18.85;;;12.95;;
39880;SDS011;25554;44.954;10.068;2022-10-13T15:16:39;23.65;;;13.88;;
39880;SDS011;25554;44.954;10.068;2022-10-13T15:19:06;20.67;;;11.10;;
39880;SDS011;25554;44.954;10.068;2022-10-13T15:21:32;16.70;;;11.68;;
39880;SDS011;25554;44.954;10.068;2022-10-13T15:23:59;16.75;;;11.52;;
39880;SDS011;25554;44.954;10.068;2022-10-13T15:26:26;20.55;;;12.18;;
39880;SDS011;25554;44.954;10.068;2022-10-13T15:28:52;16.02;;;11.65;;
39880;SDS011;25554;44.954;10.068;2022-10-13T15:31:20;15.32;;;11.30;;
39880;SDS011;25554;44.954;10.068;2022-10-13T15:33:48;16.50;;;10.93;;
39880;SDS011;25554;44.954;10.068;2022-10-13T15:36:20;19.67;;;12.48;;
39880;SDS011;25554;44.954;10.068;2022-10-13T15:38:47;16.45;;;12.88;;
39880;SDS011;25554;44.954;10.068;2022-10-13T15:41:13;21.65;;;13.40;;
39880;SDS011;25554;44.954;10.068;2022-10-13T15:43:40;16.50;;;12.35;;
39880;SDS011;25554;44.954;10.068;2022-10-13T15:46:09;18.88;;;12.10;;
39880;SDS011;25554;44.954;10.068;2022-10-13T15:48:37;22.90;;;15.05;;
39880;SDS011;25554;44.954;10.068;2022-10-13T15:51:07;20.52;;;13.60;;
39880;SDS011;25554;44.954;10.068;2022-10-13T15:53:38;19.13;;;12.80;;
39880;SDS011;25554;44.954;10.068;2022-10-13T15:58:30;58.05;;;28.30;;
39880;SDS011;25554;44.954;10.068;2022-10-13T16:00:57;56.85;;;30.48;;
39880;SDS011;25554;44.954;10.068;2022-10-13T16:05:54;23.85;;;14.82;;
39880;SDS011;25554;44.954;10.068;2022-10-13T16:08:21;22.10;;;13.88;;
39880;SDS011;25554;44.954;10.068;2022-10-13T16:10:47;20.02;;;13.65;;
39880;SDS011;25554;44.954;10.068;2022-10-13T16:15:41;16.92;;;11.55;;
39880;SDS011;25554;44.954;10.068;2022-10-13T16:18:07;24.38;;;13.18;;
39880;SDS011;25554;44.954;10.068;2022-10-13T16:20:34;17.02;;;11.93;;
39880;SDS011;25554;44.954;10.068;2022-10-13T16:23:02;20.00;;;12.55;;
39880;SDS011;25554;44.954;10.068;2022-10-13T16:25:29;20.23;;;15.05;;
39880;SDS011;25554;44.954;10.068;2022-10-13T16:27:56;17.85;;;14.20;;
39880;SDS011;25554;44.954;10.068;2022-10-13T16:30:24;19.75;;;14.18;;
39880;SDS011;25554;44.954;10.068;2022-10-13T16:35:16;16.48;;;11.45;;
39880;SDS011;25554;44.954;10.068;2022-10-13T16:40:09;22.70;;;13.73;;
39880;SDS011;25554;44.954;10.068;2022-10-13T16:42:36;24.67;;;16.27;;
39880;SDS011;25554;44.954;10.068;2022-10-13T16:47:29;23.60;;;15.80;;
39880;SDS011;25554;44.954;10.068;2022-10-13T16:52:22;27.02;;;17.27;;
39880;SDS011;25554;44.954;10.068;2022-10-13T16:57:15;24.50;;;16.17;;
39880;SDS011;25554;44.954;10.068;2022-10-13T17:02:11;24.75;;;16.23;;
39880;SDS011;25554;44.954;10.068;2022-10-13T17:04:39;25.90;;;17.60;;
39880;SDS011;25554;44.954;10.068;2022-10-13T17:07:06;21.75;;;16.48;;
39880;SDS011;25554;44.954;10.068;2022-10-13T17:11:59;30.88;;;19.50;;
39880;SDS011;25554;44.954;10.068;2022-10-13T17:14:26;31.95;;;19.40;;
39880;SDS011;25554;44.954;10.068;2022-10-13T17:19:19;29.33;;;18.88;;
39880;SDS011;25554;44.954;10.068;2022-10-13T17:24:12;33.47;;;19.90;;
39880;SDS011;25554;44.954;10.068;2022-10-13T17:26:40;31.80;;;19.80;;
39880;SDS011;25554;44.954;10.068;2022-10-13T17:31:32;30.23;;;18.80;;
39880;SDS011;25554;44.954;10.068;2022-10-13T17:36:26;30.33;;;19.92;;
39880;SDS011;25554;44.954;10.068;2022-10-13T17:38:54;32.40;;;19.48;;
39880;SDS011;25554;44.954;10.068;2022-10-13T17:41:26;29.63;;;19.33;;
39880;SDS011;25554;44.954;10.068;2022-10-13T17:46:20;29.42;;;17.70;;
39880;SDS011;25554;44.954;10.068;2022-10-13T17:48:48;28.77;;;18.25;;
39880;SDS011;25554;44.954;10.068;2022-10-13T17:51:15;23.92;;;16.98;;
39880;SDS011;25554;44.954;10.068;2022-10-13T17:53:45;33.83;;;20.08;;
39880;SDS011;25554;44.954;10.068;2022-10-13T17:56:19;25.63;;;17.45;;
39880;SDS011;25554;44.954;10.068;2022-10-13T17:58:47;28.05;;;19.58;;
39880;SDS011;25554;44.954;10.068;2022-10-13T18:01:26;25.05;;;17.35;;
39880;SDS011;25554;44.954;10.068;2022-10-13T18:03:58;33.05;;;18.95;;
39880;SDS011;25554;44.954;10.068;2022-10-13T18:06:32;32.10;;;18.67;;
39880;SDS011;25554;44.954;10.068;2022-10-13T18:09:12;27.80;;;18.60;;
39880;SDS011;25554;44.954;10.068;2022-10-13T18:11:41;24.17;;;16.52;;
39880;SDS011;25554;44.954;10.068;2022-10-13T18:14:08;25.58;;;18.10;;
39880;SDS011;25554;44.954;10.068;2022-10-13T18:16:39;34.13;;;20.00;;
39880;SDS011;25554;44.954;10.068;2022-10-13T18:19:09;31.00;;;21.60;;
39880;SDS011;25554;44.954;10.068;2022-10-13T18:24:01;34.95;;;20.60;;
39880;SDS011;25554;44.954;10.068;2022-10-13T18:29:02;37.15;;;21.92;;
39880;SDS011;25554;44.954;10.068;2022-10-13T18:31:31;34.17;;;20.10;;
39880;SDS011;25554;44.954;10.068;2022-10-13T18:33:59;35.03;;;21.75;;
39880;SDS011;25554;44.954;10.068;2022-10-13T18:36:31;38.30;;;23.13;;
39880;SDS011;25554;44.954;10.068;2022-10-13T18:41:32;36.38;;;22.25;;
39880;SDS011;25554;44.954;10.068;2022-10-13T18:43:59;39.13;;;22.80;;
39880;SDS011;25554;44.954;10.068;2022-10-13T18:46:29;35.90;;;22.38;;
39880;SDS011;25554;44.954;10.068;2022-10-13T18:48:55;35.38;;;23.33;;
39880;SDS011;25554;44.954;10.068;2022-10-13T18:51:22;33.33;;;22.10;;
39880;SDS011;25554;44.954;10.068;2022-10-13T18:53:49;32.95;;;21.48;;
39880;SDS011;25554;44.954;10.068;2022-10-13T18:56:22;35.42;;;23.10;;
39880;SDS011;25554;44.954;10.068;2022-10-13T18:58:50;37.63;;;23.23;;
39880;SDS011;25554;44.954;10.068;2022-10-13T19:01:21;41.47;;;23.63;;
39880;SDS011;25554;44.954;10.068;2022-10-13T19:03:49;34.72;;;23.27;;
39880;SDS011;25554;44.954;10.068;2022-10-13T19:06:16;33.92;;;22.42;;
39880;SDS011;25554;44.954;10.068;2022-10-13T19:08:47;40.40;;;21.63;;
39880;SDS011;25554;44.954;10.068;2022-10-13T19:13:44;36.50;;;21.70;;
39880;SDS011;25554;44.954;10.068;2022-10-13T19:16:12;35.47;;;22.65;;
39880;SDS011;25554;44.954;10.068;2022-10-13T19:18:39;34.33;;;23.20;;